Time;durP1;ratioP1;P1;durP2;ratioP2;P2;SDS_P1;SDS_P2;PMS_P1;PMS_P2;Temp;Humidity;BMP_temperature;BMP_pressure;BME280_temperature;BME280_humidity;BME280_pressure;Samples;Min_cycle;Max_cycle;Signal;HPM_P1;HPM_P2
2022/11/18 00:00:47;;;;;;;3.73;1.83;;;;;;;;;;1709649;82;21575;-44
2022/11/18 00:03:13;;;;;;;2.80;1.77;;;;;;;;;;1710595;81;21124;-46
2022/11/18 00:05:40;;;;;;;5.67;1.80;;;;;;;;;;1710835;81;21850;-42
2022/11/18 00:08:06;;;;;;;5.97;2.07;;;;;;;;;;1707609;81;21770;-43
2022/11/18 00:10:38;;;;;;;2.40;1.63;;;;;;;;;;1713237;81;21054;-43
2022/11/18 00:15:54;;;;;;;4.17;1.50;;;;;;;;;;1649876;85;21190;-43
2022/11/18 00:18:21;;;;;;;2.60;1.40;;;;;;;;;;1712444;82;21958;-45
2022/11/18 00:20:47;;;;;;;2.03;1.50;;;;;;;;;;1712200;81;21364;-43
2022/11/18 00:23:13;;;;;;;3.30;1.37;;;;;;;;;;1710867;81;22835;-42
2022/11/18 00:25:39;;;;;;;3.53;1.20;;;;;;;;;;1708588;82;21061;-45
2022/11/18 00:28:05;;;;;;;3.67;2.20;;;;;;;;;;1710077;82;21053;-44
2022/11/18 00:30:33;;;;;;;3.20;1.77;;;;;;;;;;1709812;82;21041;-45
2022/11/18 00:32:59;;;;;;;3.70;1.50;;;;;;;;;;1714625;82;21033;-43
2022/11/18 00:35:25;;;;;;;2.60;1.70;;;;;;;;;;1712453;81;21090;-42
2022/11/18 00:37:52;;;;;;;2.73;1.40;;;;;;;;;;1713706;81;21053;-43
2022/11/18 00:40:18;;;;;;;3.10;1.57;;;;;;;;;;1713015;82;22117;-44
2022/11/18 00:42:50;;;;;;;3.93;1.63;;;;;;;;;;1710049;82;21858;-44
2022/11/18 00:45:17;;;;;;;5.10;1.80;;;;;;;;;;1713783;81;21055;-43
2022/11/18 00:47:45;;;;;;;2.37;1.10;;;;;;;;;;1710554;81;21529;-45
2022/11/18 00:50:11;;;;;;;2.37;1.67;;;;;;;;;;1711500;82;21082;-43
2022/11/18 00:52:38;;;;;;;5.40;1.93;;;;;;;;;;1710940;82;21092;-44
2022/11/18 00:55:04;;;;;;;5.87;2.03;;;;;;;;;;1711922;81;21422;-43
2022/11/18 00:57:32;;;;;;;1.20;1.10;;;;;;;;;;1710901;82;21125;-44
2022/11/18 00:59:58;;;;;;;4.70;1.27;;;;;;;;;;1710588;81;21288;-43
2022/11/18 01:02:24;;;;;;;2.23;1.40;;;;;;;;;;1711601;81;21058;-43
2022/11/18 01:04:50;;;;;;;3.20;1.10;;;;;;;;;;1712278;82;21098;-43
2022/11/18 01:07:17;;;;;;;1.53;1.10;;;;;;;;;;1712746;81;23165;-44
2022/11/18 01:09:43;;;;;;;1.80;1.10;;;;;;;;;;1713069;81;21065;-44
2022/11/18 01:14:57;;;;;;;1.40;1.00;;;;;;;;;;1711883;81;21619;-43
2022/11/18 01:17:23;;;;;;;2.53;1.20;;;;;;;;;;1709756;81;21688;-43
2022/11/18 01:19:50;;;;;;;1.87;1.10;;;;;;;;;;1709661;81;21949;-45
2022/11/18 01:22:16;;;;;;;2.20;1.50;;;;;;;;;;1708324;82;21105;-44
2022/11/18 01:24:43;;;;;;;3.50;1.90;;;;;;;;;;1709817;81;21124;-45
2022/11/18 01:27:09;;;;;;;5.20;1.33;;;;;;;;;;1711341;82;21089;-44
2022/11/18 01:29:36;;;;;;;1.60;1.07;;;;;;;;;;1708882;81;21539;-43
2022/11/18 01:32:02;;;;;;;3.27;1.10;;;;;;;;;;1709430;81;21971;-44
2022/11/18 01:34:29;;;;;;;2.33;1.10;;;;;;;;;;1707209;81;21050;-44
2022/11/18 01:36:56;;;;;;;3.03;1.00;;;;;;;;;;1709910;82;21562;-45
2022/11/18 01:39:22;;;;;;;3.90;1.30;;;;;;;;;;1707321;81;21533;-43
2022/11/18 01:41:48;;;;;;;3.53;1.30;;;;;;;;;;1707784;81;21062;-44
2022/11/18 01:44:52;;;;;;;3.70;1.23;;;;;;;;;;1706943;81;21749;-45
2022/11/18 01:47:18;;;;;;;1.67;1.20;;;;;;;;;;1710057;82;21499;-45
2022/11/18 01:49:45;;;;;;;3.70;1.10;;;;;;;;;;1709659;81;21100;-45
2022/11/18 01:52:11;;;;;;;1.70;1.60;;;;;;;;;;1710614;82;21100;-44
2022/11/18 01:54:39;;;;;;;2.00;1.20;;;;;;;;;;1710131;81;21601;-46
2022/11/18 01:57:08;;;;;;;4.60;1.40;;;;;;;;;;1709608;82;21833;-44
2022/11/18 01:59:36;;;;;;;3.47;1.30;;;;;;;;;;1701343;82;21042;-45
2022/11/18 02:02:05;;;;;;;3.30;1.23;;;;;;;;;;1705458;82;21081;-46
2022/11/18 02:04:31;;;;;;;2.77;1.17;;;;;;;;;;1703203;82;21476;-46
2022/11/18 02:06:58;;;;;;;3.13;1.70;;;;;;;;;;1698938;82;21097;-45
2022/11/18 02:09:24;;;;;;;2.10;1.30;;;;;;;;;;1702628;82;21808;-45
2022/11/18 02:11:50;;;;;;;3.73;1.63;;;;;;;;;;1701760;82;21708;-44
2022/11/18 02:14:19;;;;;;;4.67;1.23;;;;;;;;;;1704523;82;21070;-44
2022/11/18 02:17:01;;;;;;;3.37;1.40;;;;;;;;;;1698860;82;21073;-44
2022/11/18 02:19:47;;;;;;;1.93;1.23;;;;;;;;;;1701805;82;21070;-45
2022/11/18 02:22:38;;;;;;;2.87;1.27;;;;;;;;;;1700519;82;22465;-46
2022/11/18 02:25:08;;;;;;;1.30;1.20;;;;;;;;;;1701277;82;21049;-44
2022/11/18 02:28:04;;;;;;;3.47;1.40;;;;;;;;;;1702349;82;21070;-44
2022/11/18 02:30:32;;;;;;;4.70;1.43;;;;;;;;;;1702464;82;21065;-45
2022/11/18 02:33:06;;;;;;;2.07;1.33;;;;;;;;;;1702808;82;22376;-44
2022/11/18 02:35:43;;;;;;;2.53;1.87;;;;;;;;;;1697722;82;21804;-45
2022/11/18 02:38:12;;;;;;;3.63;1.50;;;;;;;;;;1699348;82;21050;-44
2022/11/18 02:40:43;;;;;;;2.93;1.53;;;;;;;;;;1702118;82;21603;-44
2022/11/18 02:43:15;;;;;;;5.07;1.60;;;;;;;;;;1703945;82;22225;-45
2022/11/18 02:45:43;;;;;;;4.87;1.83;;;;;;;;;;1703004;82;21109;-45
2022/11/18 02:48:09;;;;;;;2.60;1.77;;;;;;;;;;1703296;82;21915;-44
2022/11/18 02:50:36;;;;;;;2.90;1.63;;;;;;;;;;1704762;82;21101;-45
2022/11/18 02:53:04;;;;;;;2.60;1.70;;;;;;;;;;1700774;82;21049;-45
2022/11/18 02:55:32;;;;;;;3.73;1.40;;;;;;;;;;1699836;82;21105;-44
2022/11/18 02:57:58;;;;;;;2.03;1.37;;;;;;;;;;1701876;82;21591;-46
2022/11/18 03:00:24;;;;;;;3.20;1.57;;;;;;;;;;1709851;81;22548;-44
2022/11/18 03:02:50;;;;;;;5.57;2.50;;;;;;;;;;1705762;81;21514;-45
2022/11/18 03:05:28;;;;;;;3.73;2.70;;;;;;;;;;1709263;82;21047;-44
2022/11/18 03:07:56;;;;;;;5.57;3.03;;;;;;;;;;1710042;82;21566;-45
2022/11/18 03:10:23;;;;;;;2.83;1.50;;;;;;;;;;1709370;81;21061;-44
2022/11/18 03:13:01;;;;;;;2.47;1.73;;;;;;;;;;1708749;82;21415;-44
2022/11/18 03:15:33;;;;;;;3.40;1.73;;;;;;;;;;1708366;81;21171;-45
2022/11/18 03:18:21;;;;;;;5.67;2.10;;;;;;;;;;1709840;82;21081;-45
2022/11/18 03:20:54;;;;;;;2.13;1.70;;;;;;;;;;1709160;81;21049;-45
2022/11/18 03:23:32;;;;;;;4.37;2.00;;;;;;;;;;1709401;82;21618;-45
2022/11/18 03:26:10;;;;;;;3.10;1.50;;;;;;;;;;1710159;81;21542;-45
2022/11/18 03:28:49;;;;;;;2.13;1.90;;;;;;;;;;1706615;82;21080;-45
2022/11/18 03:31:22;;;;;;;4.80;1.97;;;;;;;;;;1708930;82;21573;-45
2022/11/18 03:33:52;;;;;;;3.80;1.97;;;;;;;;;;1706259;82;21118;-45
2022/11/18 03:36:20;;;;;;;3.07;1.77;;;;;;;;;;1707190;81;21069;-45
2022/11/18 03:38:49;;;;;;;3.10;1.90;;;;;;;;;;1709916;81;21850;-45
2022/11/18 03:41:16;;;;;;;3.33;1.73;;;;;;;;;;1706635;81;21198;-45
2022/11/18 03:43:45;;;;;;;2.60;1.60;;;;;;;;;;1709165;82;21526;-45
2022/11/18 03:46:22;;;;;;;5.83;1.90;;;;;;;;;;1711626;81;21061;-45
2022/11/18 03:48:51;;;;;;;2.93;1.63;;;;;;;;;;1709267;82;21056;-45
2022/11/18 03:51:20;;;;;;;2.23;1.57;;;;;;;;;;1707421;81;21867;-45
2022/11/18 03:53:54;;;;;;;2.77;1.80;;;;;;;;;;1709621;81;21100;-45
2022/11/18 03:56:23;;;;;;;2.30;1.60;;;;;;;;;;1709924;81;21006;-45
2022/11/18 03:59:06;;;;;;;2.87;1.40;;;;;;;;;;1707887;81;21568;-44
2022/11/18 04:01:47;;;;;;;3.00;1.80;;;;;;;;;;1703557;82;21094;-44
2022/11/18 04:04:13;;;;;;;2.37;1.67;;;;;;;;;;1704074;82;22020;-44
2022/11/18 04:06:48;;;;;;;4.00;1.40;;;;;;;;;;1672865;83;21374;-44
2022/11/18 04:09:21;;;;;;;1.87;1.30;;;;;;;;;;1699150;82;21341;-44
2022/11/18 04:12:02;;;;;;;2.23;1.53;;;;;;;;;;1700384;82;21160;-44
2022/11/18 04:14:39;;;;;;;2.27;1.20;;;;;;;;;;1701379;82;21108;-44
2022/11/18 04:17:11;;;;;;;3.07;1.87;;;;;;;;;;1702246;82;21846;-44
2022/11/18 04:19:37;;;;;;;3.17;1.40;;;;;;;;;;1698662;82;21041;-44
2022/11/18 04:22:03;;;;;;;3.43;1.30;;;;;;;;;;1700166;82;21396;-45
2022/11/18 04:24:30;;;;;;;3.97;1.60;;;;;;;;;;1700401;82;21551;-44
2022/11/18 04:26:56;;;;;;;2.40;1.47;;;;;;;;;;1703425;82;21053;-44
2022/11/18 04:29:23;;;;;;;4.63;2.53;;;;;;;;;;1697756;82;21957;-44
2022/11/18 04:31:49;;;;;;;3.10;2.07;;;;;;;;;;1703090;82;21086;-44
2022/11/18 04:34:15;;;;;;;3.40;1.80;;;;;;;;;;1702905;82;21543;-44
2022/11/18 04:36:41;;;;;;;3.30;2.17;;;;;;;;;;1701236;82;21054;-44
2022/11/18 04:39:07;;;;;;;3.77;2.10;;;;;;;;;;1699507;82;21083;-44
2022/11/18 04:44:18;;;;;;;2.90;2.10;;;;;;;;;;1699963;82;22482;-45
2022/11/18 04:46:45;;;;;;;5.07;2.20;;;;;;;;;;1704889;82;21050;-45
2022/11/18 04:49:13;;;;;;;4.67;2.43;;;;;;;;;;1704505;82;21090;-44
2022/11/18 04:51:40;;;;;;;4.10;2.30;;;;;;;;;;1702228;82;21053;-45
2022/11/18 04:54:07;;;;;;;6.40;2.80;;;;;;;;;;1700209;82;21868;-44
2022/11/18 04:56:33;;;;;;;4.87;2.20;;;;;;;;;;1702511;82;21510;-44
2022/11/18 04:59:01;;;;;;;3.37;2.07;;;;;;;;;;1703654;82;21558;-43
2022/11/18 05:01:27;;;;;;;5.63;2.57;;;;;;;;;;1693547;82;21108;-46
2022/11/18 05:03:54;;;;;;;3.00;2.20;;;;;;;;;;1695200;82;21062;-44
2022/11/18 05:06:21;;;;;;;4.03;2.10;;;;;;;;;;1695295;82;21945;-44
2022/11/18 05:08:47;;;;;;;3.17;2.20;;;;;;;;;;1695000;82;21066;-45
2022/11/18 05:14:00;;;;;;;3.63;2.53;;;;;;;;;;1693574;82;22548;-44
2022/11/18 05:16:26;;;;;;;6.43;2.77;;;;;;;;;;1695215;82;21391;-43
2022/11/18 05:18:53;;;;;;;4.10;2.30;;;;;;;;;;1696580;82;22540;-46
2022/11/18 05:21:20;;;;;;;4.63;3.20;;;;;;;;;;1694050;82;21244;-45
2022/11/18 05:23:46;;;;;;;3.40;2.83;;;;;;;;;;1692758;82;21073;-43
2022/11/18 05:26:12;;;;;;;6.13;3.40;;;;;;;;;;1696166;83;21020;-46
2022/11/18 05:28:38;;;;;;;4.30;2.50;;;;;;;;;;1693254;82;21078;-46
2022/11/18 05:31:09;;;;;;;4.83;2.93;;;;;;;;;;1695578;83;21920;-43
2022/11/18 05:33:37;;;;;;;6.33;3.37;;;;;;;;;;1695397;82;21003;-43
2022/11/18 05:36:05;;;;;;;9.20;5.17;;;;;;;;;;1694343;83;21116;-44
2022/11/18 05:38:32;;;;;;;6.43;3.13;;;;;;;;;;1693466;82;21101;-43
2022/11/18 05:40:58;;;;;;;3.87;2.80;;;;;;;;;;1696078;83;21130;-44
2022/11/18 05:43:24;;;;;;;5.23;3.30;;;;;;;;;;1699992;83;21922;-44
2022/11/18 05:45:51;;;;;;;3.60;2.03;;;;;;;;;;1666907;83;21089;-43
2022/11/18 05:48:17;;;;;;;3.40;2.17;;;;;;;;;;1696083;82;21088;-43
2022/11/18 05:50:48;;;;;;;2.73;1.90;;;;;;;;;;1694703;82;21101;-43
2022/11/18 05:53:15;;;;;;;3.87;3.47;;;;;;;;;;1698559;82;21117;-44
2022/11/18 05:55:47;;;;;;;6.57;3.17;;;;;;;;;;1698031;82;21853;-44
2022/11/18 05:58:14;;;;;;;5.97;4.07;;;;;;;;;;1696358;83;21637;-43
2022/11/18 06:00:40;;;;;;;6.63;4.27;;;;;;;;;;1700678;82;21533;-43
2022/11/18 06:03:10;;;;;;;8.40;4.63;;;;;;;;;;1706806;82;21091;-43
2022/11/18 06:05:38;;;;;;;6.67;4.10;;;;;;;;;;1704404;82;22180;-44
2022/11/18 06:08:06;;;;;;;6.50;3.63;;;;;;;;;;1706203;82;21835;-45
2022/11/18 06:10:33;;;;;;;5.20;3.70;;;;;;;;;;1666802;82;21112;-45
2022/11/18 06:13:01;;;;;;;9.50;5.03;;;;;;;;;;1701535;82;22325;-44
2022/11/18 06:15:30;;;;;;;5.87;4.03;;;;;;;;;;1702665;82;21672;-45
2022/11/18 06:18:03;;;;;;;3.80;3.50;;;;;;;;;;1705763;82;21069;-45
2022/11/18 06:20:31;;;;;;;3.33;2.45;;;;;;;;;;1704244;82;22151;-44
2022/11/18 06:23:00;;;;;;;3.90;3.50;;;;;;;;;;1655087;83;21424;-44
2022/11/18 06:25:26;;;;;;;5.73;3.33;;;;;;;;;;1706335;82;21051;-44
2022/11/18 06:27:54;;;;;;;5.43;3.50;;;;;;;;;;1707102;82;21122;-44
2022/11/18 06:30:20;;;;;;;9.97;4.07;;;;;;;;;;1705791;82;21574;-44
2022/11/18 06:32:46;;;;;;;3.60;3.20;;;;;;;;;;1706036;82;21834;-44
2022/11/18 06:35:12;;;;;;;5.37;2.97;;;;;;;;;;1702004;82;21270;-43
2022/11/18 06:37:39;;;;;;;6.80;3.97;;;;;;;;;;1702182;82;21066;-44
2022/11/18 06:40:06;;;;;;;7.67;6.60;;;;;;;;;;1694593;82;21186;-44
2022/11/18 06:45:19;;;;;;;;;;;;;;;;;;1704396;82;21948;-44
2022/11/18 06:47:46;;;;;;;5.00;2.37;;;;;;;;;;1701356;82;21434;-44
2022/11/18 06:50:12;;;;;;;4.37;2.83;;;;;;;;;;1702155;82;21105;-43
2022/11/18 06:52:59;;;;;;;5.15;2.30;;;;;;;;;;1700755;82;21785;-44
2022/11/18 06:55:25;;;;;;;5.20;2.30;;;;;;;;;;1703746;82;21077;-45
2022/11/18 06:57:51;;;;;;;7.70;3.10;;;;;;;;;;1702336;82;21818;-45
2022/11/18 07:00:18;;;;;;;6.07;2.57;;;;;;;;;;1703803;82;21101;-45
2022/11/18 07:02:45;;;;;;;9.33;2.57;;;;;;;;;;1704176;82;21057;-45
2022/11/18 07:05:11;;;;;;;6.53;2.53;;;;;;;;;;1700997;82;21149;-45
2022/11/18 07:07:37;;;;;;;9.03;2.47;;;;;;;;;;1703151;82;21086;-44
2022/11/18 07:10:05;;;;;;;5.83;2.70;;;;;;;;;;1700448;82;21853;-45
2022/11/18 07:12:31;;;;;;;6.50;2.77;;;;;;;;;;1702297;82;21668;-44
2022/11/18 07:14:57;;;;;;;8.83;2.70;;;;;;;;;;1700568;82;21100;-44
2022/11/18 07:17:24;;;;;;;11.67;3.07;;;;;;;;;;1704736;82;21531;-44
2022/11/18 07:19:51;;;;;;;11.10;2.37;;;;;;;;;;1700955;82;21073;-45
2022/11/18 07:22:18;;;;;;;9.43;2.97;;;;;;;;;;1705431;82;21844;-45
2022/11/18 07:24:44;;;;;;;9.10;3.03;;;;;;;;;;1705872;82;21112;-44
2022/11/18 07:27:10;;;;;;;8.90;3.07;;;;;;;;;;1702159;82;21350;-45
2022/11/18 07:29:37;;;;;;;13.97;3.70;;;;;;;;;;1702713;82;21789;-45
2022/11/18 07:32:03;;;;;;;16.33;3.57;;;;;;;;;;1701576;82;21133;-45
2022/11/18 07:34:30;;;;;;;9.43;2.87;;;;;;;;;;1704267;82;21841;-44
2022/11/18 07:36:56;;;;;;;15.73;4.07;;;;;;;;;;1705625;82;21105;-45
2022/11/18 07:39:22;;;;;;;9.50;3.30;;;;;;;;;;1704057;82;21108;-45
2022/11/18 07:41:48;;;;;;;14.70;3.90;;;;;;;;;;1702316;82;21527;-44
2022/11/18 07:44:16;;;;;;;15.03;4.77;;;;;;;;;;1704766;82;21743;-45
2022/11/18 07:46:44;;;;;;;11.80;4.13;;;;;;;;;;1700211;82;23307;-44
2022/11/18 07:49:11;;;;;;;11.57;6.40;;;;;;;;;;1701602;82;22594;-44
2022/11/18 07:51:38;;;;;;;18.83;7.80;;;;;;;;;;1702352;82;21245;-45
2022/11/18 07:54:07;;;;;;;11.87;7.03;;;;;;;;;;1697325;82;21519;-45
2022/11/18 07:56:34;;;;;;;11.07;6.33;;;;;;;;;;1702790;82;21582;-44
2022/11/18 07:59:00;;;;;;;10.17;5.27;;;;;;;;;;1700728;82;21947;-45
2022/11/18 08:01:28;;;;;;;7.20;4.53;;;;;;;;;;1704458;82;21132;-44
2022/11/18 08:03:54;;;;;;;7.57;5.20;;;;;;;;;;1703407;82;21403;-44
2022/11/18 08:06:20;;;;;;;8.50;4.70;;;;;;;;;;1704381;82;21112;-45
2022/11/18 08:08:47;;;;;;;8.00;6.50;;;;;;;;;;1703864;82;21064;-45
2022/11/18 08:11:16;;;;;;;63.53;48.43;;;;;;;;;;1710038;82;21058;-45
2022/11/18 08:13:43;;;;;;;13.60;9.30;;;;;;;;;;1706036;82;21085;-45
2022/11/18 08:16:14;;;;;;;14.33;9.27;;;;;;;;;;1708193;82;21086;-44
2022/11/18 08:18:40;;;;;;;8.77;5.23;;;;;;;;;;1708980;82;21534;-45
2022/11/18 08:21:06;;;;;;;6.20;5.47;;;;;;;;;;1704540;82;21108;-45
2022/11/18 08:23:34;;;;;;;6.90;4.97;;;;;;;;;;1707194;82;21903;-44
2022/11/18 08:26:03;;;;;;;8.00;4.73;;;;;;;;;;1708985;82;21125;-44
2022/11/18 08:28:30;;;;;;;6.13;4.77;;;;;;;;;;1706289;82;21203;-45
2022/11/18 08:30:57;;;;;;;8.33;4.17;;;;;;;;;;1705074;82;21057;-44
2022/11/18 08:33:23;;;;;;;5.47;4.97;;;;;;;;;;1706220;82;21105;-45
2022/11/18 08:35:49;;;;;;;9.17;5.63;;;;;;;;;;1706610;82;22601;-45
2022/11/18 08:38:16;;;;;;;8.97;6.80;;;;;;;;;;1705349;82;21620;-45
2022/11/18 08:40:44;;;;;;;7.53;6.13;;;;;;;;;;1705013;82;21442;-44
2022/11/18 08:43:10;;;;;;;8.30;6.00;;;;;;;;;;1711570;82;21551;-45
2022/11/18 08:45:41;;;;;;;9.97;7.13;;;;;;;;;;1705886;82;21148;-45
2022/11/18 08:48:07;;;;;;;9.33;7.30;;;;;;;;;;1707106;82;21866;-44
2022/11/18 08:50:34;;;;;;;6.00;5.43;;;;;;;;;;1705640;82;21108;-44
2022/11/18 08:53:01;;;;;;;6.47;4.83;;;;;;;;;;1707024;82;21121;-45
2022/11/18 08:55:28;;;;;;;5.40;3.63;;;;;;;;;;1708832;82;21052;-45
2022/11/18 08:57:54;;;;;;;5.37;4.73;;;;;;;;;;1701558;82;21026;-44
2022/11/18 09:00:20;;;;;;;4.50;3.90;;;;;;;;;;1704578;82;21955;-45
2022/11/18 09:02:47;;;;;;;6.03;5.43;;;;;;;;;;1702059;82;21010;-45
2022/11/18 09:05:13;;;;;;;5.40;3.80;;;;;;;;;;1701452;82;21096;-45
2022/11/18 09:07:40;;;;;;;7.43;5.87;;;;;;;;;;1701188;82;21390;-45
2022/11/18 09:10:08;;;;;;;7.57;6.83;;;;;;;;;;1671939;83;21571;-45
2022/11/18 09:12:34;;;;;;;7.00;6.33;;;;;;;;;;1671576;83;21814;-45
2022/11/18 09:15:01;;;;;;;7.80;5.43;;;;;;;;;;1705849;82;21046;-44
2022/11/18 09:17:27;;;;;;;5.93;4.40;;;;;;;;;;1667918;83;21180;-44
2022/11/18 09:19:53;;;;;;;7.17;5.83;;;;;;;;;;1707116;82;21679;-45
2022/11/18 09:22:19;;;;;;;5.20;3.97;;;;;;;;;;1698619;82;21067;-45
2022/11/18 09:24:46;;;;;;;5.20;3.57;;;;;;;;;;1704038;82;21849;-45
2022/11/18 09:27:12;;;;;;;3.77;2.80;;;;;;;;;;1703514;82;21136;-44
2022/11/18 09:29:39;;;;;;;4.23;3.77;;;;;;;;;;1701941;82;21069;-44
2022/11/18 09:32:05;;;;;;;4.30;3.50;;;;;;;;;;1703420;82;22570;-45
2022/11/18 09:34:33;;;;;;;3.90;2.43;;;;;;;;;;1705580;82;21022;-45
2022/11/18 09:36:59;;;;;;;3.77;3.33;;;;;;;;;;1703558;82;21800;-45
2022/11/18 09:39:25;;;;;;;2.80;2.20;;;;;;;;;;1700448;82;21113;-45
2022/11/18 09:42:11;;;;;;;5.53;2.63;;;;;;;;;;1702736;82;21057;-45
2022/11/18 09:44:45;;;;;;;3.50;3.20;;;;;;;;;;1702757;82;21346;-45
2022/11/18 09:47:29;;;;;;;3.10;2.30;;;;;;;;;;1701503;82;21065;-45
2022/11/18 09:49:57;;;;;;;3.23;2.23;;;;;;;;;;1703948;82;22123;-45
2022/11/18 09:52:30;;;;;;;3.07;2.40;;;;;;;;;;1683273;82;21033;-44
2022/11/18 09:54:57;;;;;;;2.80;1.73;;;;;;;;;;1703643;82;21018;-44
2022/11/18 09:57:25;;;;;;;3.23;2.60;;;;;;;;;;1703783;82;21012;-44
2022/11/18 09:59:51;;;;;;;5.50;3.00;;;;;;;;;;1704723;82;21006;-45
2022/11/18 10:02:27;;;;;;;2.53;2.33;;;;;;;;;;1709727;81;21807;-45
2022/11/18 10:05:02;;;;;;;2.93;2.30;;;;;;;;;;1705307;82;21137;-45
2022/11/18 10:07:37;;;;;;;2.60;1.80;;;;;;;;;;1683411;82;21037;-45
2022/11/18 10:10:07;;;;;;;2.63;1.83;;;;;;;;;;1712701;82;21108;-45
2022/11/18 10:12:40;;;;;;;2.53;1.50;;;;;;;;;;1707182;81;21078;-45
2022/11/18 10:15:25;;;;;;;3.17;2.07;;;;;;;;;;1714882;81;21906;-45
2022/11/18 10:18:03;;;;;;;3.40;2.17;;;;;;;;;;1711680;82;21056;-45
2022/11/18 10:20:50;;;;;;;1.90;1.70;;;;;;;;;;1703889;82;21053;-44
2022/11/18 10:23:26;;;;;;;2.13;1.93;;;;;;;;;;1706728;81;21057;-45
2022/11/18 10:25:52;;;;;;;2.17;1.67;;;;;;;;;;1710500;81;21527;-45
2022/11/18 10:28:22;;;;;;;1.70;1.20;;;;;;;;;;1709445;81;21836;-44
2022/11/18 10:30:49;;;;;;;3.73;1.80;;;;;;;;;;1707024;82;21120;-44
2022/11/18 10:33:25;;;;;;;2.20;1.50;;;;;;;;;;1708338;81;21060;-45
2022/11/18 10:36:10;;;;;;;3.70;1.87;;;;;;;;;;1703850;81;21092;-45
2022/11/18 10:38:36;;;;;;;2.10;1.47;;;;;;;;;;1710721;81;21063;-45
2022/11/18 10:41:08;;;;;;;4.50;1.37;;;;;;;;;;1709732;81;21975;-45
2022/11/18 10:43:50;;;;;;;2.63;1.70;;;;;;;;;;1708846;81;21528;-45
2022/11/18 10:46:30;;;;;;;2.50;1.90;;;;;;;;;;1675643;83;21551;-45
2022/11/18 10:49:09;;;;;;;5.07;2.57;;;;;;;;;;1704994;81;21068;-45
2022/11/18 10:51:37;;;;;;;3.43;2.53;;;;;;;;;;1705837;81;21065;-45
2022/11/18 10:54:18;;;;;;;8.40;2.53;;;;;;;;;;1710663;81;21966;-45
2022/11/18 10:56:49;;;;;;;3.03;1.93;;;;;;;;;;1705773;81;21106;-45
2022/11/18 10:59:34;;;;;;;4.33;1.53;;;;;;;;;;1710459;82;21091;-45
2022/11/18 11:02:04;;;;;;;3.27;2.75;;;;;;;;;;1702064;82;21402;-46
2022/11/18 11:04:30;;;;;;;2.87;1.93;;;;;;;;;;1709295;81;21611;-45
2022/11/18 11:06:58;;;;;;;3.33;2.73;;;;;;;;;;1710188;81;21591;-45
2022/11/18 11:09:29;;;;;;;3.87;3.10;;;;;;;;;;1712426;82;21568;-45
2022/11/18 11:12:13;;;;;;;2.27;2.03;;;;;;;;;;1706920;81;21449;-45
2022/11/18 11:16:28;;;;;;;5.57;3.57;;;;;;;;;;1866288;75;27822;-46
2022/11/18 11:18:58;;;;;;;4.87;2.77;;;;;;;;;;1841458;75;21072;-45
2022/11/18 11:21:26;;;;;;;3.27;2.80;;;;;;;;;;1846330;75;21846;-46
2022/11/18 11:23:52;;;;;;;4.63;3.60;;;;;;;;;;1844456;75;21076;-46
2022/11/18 11:26:40;;;;;;;3.57;3.03;;;;;;;;;;1838898;75;21056;-45
2022/11/18 11:29:44;;;;;;;5.63;3.47;;;;;;;;;;1846125;75;21028;-45
2022/11/18 11:32:17;;;;;;;3.50;2.53;;;;;;;;;;1843205;75;21079;-46
2022/11/18 11:35:01;;;;;;;11.60;4.17;;;;;;;;;;1847920;75;21993;-45
2022/11/18 11:37:37;;;;;;;7.40;4.65;;;;;;;;;;1845090;75;21706;-46
2022/11/18 11:40:28;;;;;;;9.13;3.97;;;;;;;;;;1839812;75;21041;-46
2022/11/18 11:43:22;;;;;;;8.07;4.47;;;;;;;;;;1844588;75;21080;-46
2022/11/18 11:46:01;;;;;;;4.53;4.07;;;;;;;;;;1844993;75;21005;-45
2022/11/18 11:48:34;;;;;;;3.90;3.27;;;;;;;;;;1845481;75;21711;-45
2022/11/18 11:51:02;;;;;;;4.57;4.07;;;;;;;;;;1850666;75;20986;-45
2022/11/18 11:53:50;;;;;;;4.47;3.97;;;;;;;;;;1847107;75;21056;-45
2022/11/18 11:56:32;;;;;;;5.22;4.15;;;;;;;;;;1849554;75;21534;-44
2022/11/18 11:59:13;;;;;;;4.70;3.23;;;;;;;;;;1851674;75;21028;-45
2022/11/18 12:01:57;;;;;;;7.10;4.17;;;;;;;;;;1847501;75;21826;-44
2022/11/18 12:04:30;;;;;;;6.30;4.12;;;;;;;;;;1844691;75;21163;-44
2022/11/18 12:06:57;;;;;;;6.70;3.70;;;;;;;;;;1845201;75;21355;-44
2022/11/18 12:09:36;;;;;;;7.10;5.10;;;;;;;;;;1843674;75;21526;-44
2022/11/18 12:12:33;;;;;;;5.07;4.03;;;;;;;;;;1845752;75;21500;-45
2022/11/18 12:15:21;;;;;;;6.63;4.37;;;;;;;;;;1836459;75;21546;-45
2022/11/18 12:17:57;;;;;;;6.40;4.13;;;;;;;;;;1835331;75;21092;-45
2022/11/18 12:20:36;;;;;;;4.97;3.40;;;;;;;;;;1842803;75;21487;-45
2022/11/18 12:23:17;;;;;;;5.53;3.50;;;;;;;;;;1819299;75;21084;-45
2022/11/18 12:25:47;;;;;;;7.57;5.13;;;;;;;;;;1838371;75;21070;-44
2022/11/18 12:28:24;;;;;;;6.40;3.90;;;;;;;;;;1837255;75;21816;-44
2022/11/18 12:31:11;;;;;;;4.63;3.47;;;;;;;;;;1831570;75;21005;-45
2022/11/18 12:33:50;;;;;;;5.47;3.37;;;;;;;;;;1839831;75;21009;-45
2022/11/18 12:36:31;;;;;;;4.90;3.50;;;;;;;;;;1836415;75;21299;-44
2022/11/18 12:39:19;;;;;;;5.53;3.57;;;;;;;;;;1839733;75;21022;-45
2022/11/18 12:44:39;;;;;;;6.77;3.27;;;;;;;;;;1837739;75;21448;-45
2022/11/18 12:47:11;;;;;;;6.53;3.60;;;;;;;;;;1836334;75;21537;-45
2022/11/18 12:49:47;;;;;;;7.37;4.37;;;;;;;;;;1831860;75;21041;-45
2022/11/18 12:52:33;;;;;;;7.77;4.60;;;;;;;;;;1830860;75;21032;-45
2022/11/18 12:55:00;;;;;;;6.47;3.70;;;;;;;;;;1838081;75;23038;-44
2022/11/18 12:57:28;;;;;;;7.47;4.93;;;;;;;;;;1835939;75;21322;-45
2022/11/18 12:59:54;;;;;;;9.47;5.83;;;;;;;;;;1836082;75;21677;-44
2022/11/18 13:02:24;;;;;;;7.23;4.30;;;;;;;;;;1837478;75;21326;-44
2022/11/18 13:05:10;;;;;;;6.23;3.93;;;;;;;;;;1833216;76;21431;-45
2022/11/18 13:10:31;;;;;;;6.17;3.40;;;;;;;;;;1833017;75;21733;-44
2022/11/18 13:12:57;;;;;;;5.87;4.37;;;;;;;;;;1834289;75;21407;-44
2022/11/18 13:18:13;;;;;;;;;;;;;;;;;;1840067;75;21479;-45
2022/11/18 13:20:40;;;;;;;5.83;4.63;;;;;;;;;;1837897;75;21961;-44
2022/11/18 13:26:06;;;;;;;6.53;4.40;;;;;;;;;;1834024;75;21581;-44
2022/11/18 13:28:37;;;;;;;6.47;5.10;;;;;;;;;;1835453;76;21021;-44
2022/11/18 13:31:22;;;;;;;4.00;3.60;;;;;;;;;;1835837;75;21041;-45
2022/11/18 13:33:49;;;;;;;3.83;3.13;;;;;;;;;;1834909;75;21979;-45
2022/11/18 13:36:17;;;;;;;4.70;3.90;;;;;;;;;;1833258;76;21100;-45
2022/11/18 13:38:57;;;;;;;5.67;3.43;;;;;;;;;;1835160;76;21475;-44
2022/11/18 13:41:23;;;;;;;4.57;3.97;;;;;;;;;;1834036;76;21052;-44
2022/11/18 13:43:50;;;;;;;5.90;4.50;;;;;;;;;;1835627;76;21240;-45
2022/11/18 13:46:18;;;;;;;3.90;3.60;;;;;;;;;;1831168;76;23354;-45
2022/11/18 13:48:55;;;;;;;3.73;3.20;;;;;;;;;;1832810;75;21248;-45
2022/11/18 13:51:23;;;;;;;4.97;4.10;;;;;;;;;;1835121;76;21282;-45
2022/11/18 13:53:49;;;;;;;6.17;3.83;;;;;;;;;;1835315;76;21084;-45
2022/11/18 13:56:24;;;;;;;3.70;3.37;;;;;;;;;;1832596;76;21554;-45
2022/11/18 13:58:59;;;;;;;8.20;4.37;;;;;;;;;;1839671;76;21949;-44
2022/11/18 14:01:27;;;;;;;7.07;4.60;;;;;;;;;;1833372;76;21333;-44
2022/11/18 14:04:04;;;;;;;6.17;3.97;;;;;;;;;;1836898;75;21021;-44
2022/11/18 14:06:37;;;;;;;4.33;3.70;;;;;;;;;;1837275;75;21032;-44
2022/11/18 14:09:10;;;;;;;3.83;3.50;;;;;;;;;;1841324;76;21131;-44
2022/11/18 14:11:42;;;;;;;5.53;4.20;;;;;;;;;;1833069;76;23795;-44
2022/11/18 14:14:09;;;;;;;6.03;4.50;;;;;;;;;;1830879;75;21364;-44
2022/11/18 14:16:37;;;;;;;3.80;3.50;;;;;;;;;;1829341;75;21545;-44
2022/11/18 14:19:03;;;;;;;8.17;5.03;;;;;;;;;;1831238;76;21531;-45
2022/11/18 14:21:34;;;;;;;6.03;4.50;;;;;;;;;;1830713;76;21033;-45
2022/11/18 14:24:00;;;;;;;7.73;5.60;;;;;;;;;;1830938;76;21828;-45
2022/11/18 14:26:35;;;;;;;9.67;6.03;;;;;;;;;;1830728;76;21104;-45
2022/11/18 14:29:02;;;;;;;;;;;;;;;;;;1828587;76;21069;-45
2022/11/18 14:31:30;;;;;;;9.40;6.13;;;;;;;;;;1830129;76;21013;-45
2022/11/18 14:34:06;;;;;;;12.57;6.80;;;;;;;;;;1832164;76;21021;-44
2022/11/18 14:36:32;;;;;;;9.93;6.53;;;;;;;;;;1831999;76;22363;-45
2022/11/18 14:38:58;;;;;;;10.23;7.67;;;;;;;;;;1832311;76;21078;-45
2022/11/18 14:44:09;;;;;;;;;;;;;;;;;;1834687;76;21036;-44
2022/11/18 14:46:36;;;;;;;7.37;5.60;;;;;;;;;;1827918;76;22246;-44
2022/11/18 14:49:04;;;;;;;9.23;6.97;;;;;;;;;;1833708;76;21921;-44
2022/11/18 14:51:30;;;;;;;10.53;7.27;;;;;;;;;;1831364;76;21498;-44
2022/11/18 14:53:56;;;;;;;12.10;8.00;;;;;;;;;;1828316;76;21048;-44
2022/11/18 14:56:26;;;;;;;10.53;7.47;;;;;;;;;;1833646;76;21106;-44
2022/11/18 14:58:52;;;;;;;9.97;7.23;;;;;;;;;;1827358;76;21741;-44
2022/11/18 15:05:34;;;;;;;10.57;5.90;;;;;;;-0.31;100.00;98991.19;1736529;78;77974;-84
2022/11/18 15:08:01;;;;;;;;;;;;;;;-0.31;100.00;98991.19;1717115;81;21096;-82
2022/11/18 15:10:28;;;;;;;8.43;6.63;;;;;;;-0.28;100.00;98987.19;1714533;81;21703;-83
2022/11/18 15:12:55;;;;;;;12.07;7.70;;;;;;;-0.27;100.00;98972.19;1717544;81;21175;-81
2022/11/18 15:15:22;;;;;;;10.37;6.10;;;;;;;-0.27;100.00;98969.55;1711388;81;21140;-82
2022/11/18 15:17:48;;;;;;;10.63;7.30;;;;;;;-0.27;100.00;98952.36;1712282;81;21126;-81
2022/11/18 15:20:17;;;;;;;12.83;7.77;;;;;;;-0.28;100.00;98942.67;1712005;81;21101;-80
2022/11/18 18:37:14;;;;;;;23.50;14.23;;;;;;;;;;1793189;78;27615;-45
2022/11/18 18:39:40;;;;;;;21.93;14.17;;;;;;;;;;1770252;79;21038;-45
2022/11/18 18:42:07;;;;;;;21.07;13.27;;;;;;;;;;1775475;79;21847;-45
2022/11/18 18:47:18;;;;;;;20.48;13.18;;;;;;;;;;1770671;79;21221;-45